createdAt,value
2022-12-22T00:00:38.929Z,9.01
2022-12-22T00:01:40.067Z,9.01
2022-12-22T00:02:39.242Z,8.99
2022-12-22T00:03:39.062Z,8.99
2022-12-22T00:04:38.889Z,9.02
2022-12-22T00:05:38.867Z,9.02
2022-12-22T00:06:38.860Z,9.01
2022-12-22T00:07:38.850Z,9.04
2022-12-22T00:08:38.826Z,9.04
2022-12-22T00:09:38.816Z,9.01
2022-12-22T00:10:38.814Z,9.02
2022-12-22T00:11:38.821Z,9.02
2022-12-22T00:12:38.798Z,9.04
2022-12-22T00:13:38.773Z,9.01
2022-12-22T00:14:38.762Z,8.99
2022-12-22T00:15:38.758Z,8.99
2022-12-22T00:16:38.775Z,8.98
2022-12-22T00:17:38.745Z,8.98
2022-12-22T00:18:38.717Z,8.99
2022-12-22T00:19:38.728Z,9.04
2022-12-22T00:20:38.695Z,9.01
2022-12-22T00:21:38.687Z,9.04
2022-12-22T00:22:38.671Z,9.04
2022-12-22T00:23:38.685Z,9.04
2022-12-22T00:24:38.662Z,9.04
2022-12-22T00:25:38.636Z,9.02
2022-12-22T00:26:38.635Z,9.02
2022-12-22T00:27:43.777Z,9.04
2022-12-22T00:28:38.674Z,9.04
2022-12-22T00:29:38.603Z,9.08
2022-12-22T00:30:38.661Z,9.10
2022-12-22T00:31:38.576Z,9.10
2022-12-22T00:32:38.569Z,9.10
2022-12-22T00:33:38.550Z,9.11
2022-12-22T00:34:38.554Z,9.10
2022-12-22T00:35:38.551Z,9.08
2022-12-22T00:36:38.534Z,9.08
2022-12-22T00:37:38.513Z,9.08
2022-12-22T00:38:38.505Z,9.10
2022-12-22T00:39:38.491Z,9.13
2022-12-22T00:40:38.487Z,9.13
2022-12-22T00:41:38.484Z,9.14
2022-12-22T00:42:38.457Z,9.17
2022-12-22T00:43:38.447Z,9.17
2022-12-22T00:44:38.430Z,9.17
2022-12-22T00:45:38.464Z,9.18
2022-12-22T00:46:38.418Z,9.20
2022-12-22T00:47:38.410Z,9.21
2022-12-22T00:48:38.407Z,9.20
2022-12-22T00:49:38.379Z,9.21
2022-12-22T00:50:38.370Z,9.20
2022-12-22T00:51:38.368Z,9.21
2022-12-22T00:52:38.342Z,9.20
2022-12-22T00:53:38.334Z,9.21
2022-12-22T00:54:38.339Z,9.23
2022-12-22T00:55:38.309Z,9.24
2022-12-22T00:56:38.321Z,9.21
2022-12-22T00:57:38.317Z,9.23
2022-12-22T00:58:38.292Z,9.23
2022-12-22T00:59:38.266Z,9.24
2022-12-22T01:00:38.273Z,9.24
2022-12-22T01:01:38.384Z,9.26
2022-12-22T01:02:38.482Z,9.24
2022-12-22T01:03:38.302Z,9.21
2022-12-22T01:04:38.209Z,9.21
2022-12-22T01:05:38.197Z,9.24
2022-12-22T01:06:38.195Z,9.24
2022-12-22T01:07:38.184Z,9.26
2022-12-22T01:08:38.196Z,9.29
2022-12-22T01:09:38.145Z,9.31
2022-12-22T01:10:38.142Z,9.31
2022-12-22T01:11:38.141Z,9.31
2022-12-22T01:12:38.134Z,9.32
2022-12-22T01:13:38.128Z,9.31
2022-12-22T01:14:38.090Z,9.33
2022-12-22T01:15:38.190Z,9.32
2022-12-22T01:16:38.145Z,9.33
2022-12-22T01:17:38.058Z,9.32
2022-12-22T01:18:38.053Z,9.32
2022-12-22T01:19:38.058Z,9.31
2022-12-22T01:20:38.037Z,9.33
2022-12-22T01:21:38.016Z,9.32
2022-12-22T01:22:38.023Z,9.31
2022-12-22T01:23:37.993Z,9.31
2022-12-22T01:24:38.004Z,9.29
2022-12-22T01:25:38.014Z,9.32
2022-12-22T01:26:37.986Z,9.31
2022-12-22T01:27:37.969Z,9.32
2022-12-22T01:28:37.932Z,9.32
2022-12-22T01:29:37.931Z,9.32
2022-12-22T01:30:37.975Z,9.32
2022-12-22T01:31:37.916Z,9.31
2022-12-22T01:32:37.903Z,9.32
2022-12-22T01:33:37.891Z,9.32
2022-12-22T01:34:37.868Z,9.32
2022-12-22T01:35:37.852Z,9.33
2022-12-22T01:36:37.844Z,9.35
2022-12-22T01:37:37.870Z,9.35
2022-12-22T01:38:37.823Z,9.32
2022-12-22T01:39:37.802Z,9.33
2022-12-22T01:40:37.802Z,9.33
2022-12-22T01:41:37.792Z,9.33
2022-12-22T01:42:37.778Z,9.35
2022-12-22T01:43:37.813Z,9.33
2022-12-22T01:44:37.754Z,9.33
2022-12-22T01:45:37.749Z,9.36
2022-12-22T01:46:37.849Z,9.36
2022-12-22T01:47:37.723Z,9.36
2022-12-22T01:48:37.721Z,9.38
2022-12-22T01:49:37.721Z,9.36
2022-12-22T01:50:37.704Z,9.33
2022-12-22T01:51:37.683Z,9.32
2022-12-22T01:52:37.668Z,9.32
2022-12-22T01:53:37.650Z,9.33
2022-12-22T01:54:37.639Z,9.36
2022-12-22T01:55:37.640Z,9.36
2022-12-22T01:56:37.621Z,9.36
2022-12-22T01:57:37.626Z,9.36
2022-12-22T01:58:37.597Z,9.35
2022-12-22T01:59:37.833Z,9.32
2022-12-22T02:00:37.581Z,9.32
2022-12-22T02:01:37.705Z,9.32
2022-12-22T02:02:37.848Z,9.33
2022-12-22T02:03:37.620Z,9.35
2022-12-22T02:04:37.551Z,9.38
2022-12-22T02:05:37.515Z,9.38
2022-12-22T02:06:37.529Z,9.38
2022-12-22T02:07:37.496Z,9.39
2022-12-22T02:08:37.497Z,9.40
2022-12-22T02:09:37.474Z,9.39
2022-12-22T02:10:37.461Z,9.38
2022-12-22T02:11:37.444Z,9.38
2022-12-22T02:12:37.478Z,9.36
2022-12-22T02:13:37.442Z,9.38
2022-12-22T02:14:37.412Z,9.36
2022-12-22T02:15:37.505Z,9.38
2022-12-22T02:16:37.513Z,9.40
2022-12-22T02:17:37.376Z,9.40
2022-12-22T02:18:37.387Z,9.43
2022-12-22T02:19:37.356Z,9.43
2022-12-22T02:20:37.348Z,9.47
2022-12-22T02:21:37.335Z,9.46
2022-12-22T02:22:37.329Z,9.47
2022-12-22T02:23:37.316Z,9.46
2022-12-22T02:24:37.308Z,9.46
2022-12-22T02:25:37.294Z,9.46
2022-12-22T02:26:37.278Z,9.46
2022-12-22T02:27:37.279Z,9.47
2022-12-22T02:28:37.260Z,9.48
2022-12-22T02:29:37.256Z,9.48
2022-12-22T02:30:37.234Z,9.48
2022-12-22T02:31:37.270Z,9.51
2022-12-22T02:32:37.229Z,9.51
2022-12-22T02:33:37.204Z,9.53
2022-12-22T02:34:37.215Z,9.53
2022-12-22T02:35:37.177Z,9.51
2022-12-22T02:36:37.164Z,9.50
2022-12-22T02:37:37.173Z,9.48
2022-12-22T02:38:37.164Z,9.50
2022-12-22T02:39:37.141Z,9.50
2022-12-22T02:40:41.405Z,9.51
2022-12-22T02:41:37.132Z,9.51
2022-12-22T02:42:37.106Z,9.51
2022-12-22T02:43:37.096Z,9.50
2022-12-22T02:44:37.075Z,9.51
2022-12-22T02:45:37.096Z,9.51
2022-12-22T02:46:37.109Z,9.51
2022-12-22T02:47:37.059Z,9.50
2022-12-22T02:48:37.053Z,9.51
2022-12-22T02:49:37.025Z,9.48
2022-12-22T02:50:37.035Z,9.51
2022-12-22T02:51:37.021Z,9.50
2022-12-22T02:52:36.992Z,9.51
2022-12-22T02:53:36.986Z,9.53
2022-12-22T02:54:36.987Z,9.54
2022-12-22T02:55:36.961Z,9.53
2022-12-22T02:56:37.032Z,9.56
2022-12-22T02:57:36.950Z,9.56
2022-12-22T02:58:36.939Z,9.54
2022-12-22T02:59:36.927Z,9.54
2022-12-22T03:00:36.911Z,9.54
2022-12-22T03:01:37.018Z,9.53
2022-12-22T03:02:37.152Z,9.54
2022-12-22T03:03:37.186Z,9.53
2022-12-22T03:04:36.923Z,9.53
2022-12-22T03:05:36.861Z,9.54
2022-12-22T03:06:36.853Z,9.56
2022-12-22T03:07:36.832Z,9.57
2022-12-22T03:08:36.845Z,9.57
2022-12-22T03:09:36.819Z,9.57
2022-12-22T03:10:36.818Z,9.56
2022-12-22T03:11:36.803Z,9.56
2022-12-22T03:12:36.795Z,9.58
2022-12-22T03:13:36.769Z,9.57
2022-12-22T03:14:36.777Z,9.58
2022-12-22T03:15:36.797Z,9.57
2022-12-22T03:16:36.817Z,9.57
2022-12-22T03:17:36.728Z,9.57
2022-12-22T03:18:36.720Z,9.58
2022-12-22T03:19:36.734Z,9.58
2022-12-22T03:20:36.689Z,9.57
2022-12-22T03:21:36.706Z,9.58
2022-12-22T03:22:36.736Z,9.60
2022-12-22T03:23:36.664Z,9.60
2022-12-22T03:24:36.646Z,9.61
2022-12-22T03:25:36.652Z,9.61
2022-12-22T03:26:36.631Z,9.58
2022-12-22T03:27:36.623Z,9.58
2022-12-22T03:28:36.616Z,9.61
2022-12-22T03:29:36.603Z,9.64
2022-12-22T03:30:36.613Z,9.61
2022-12-22T03:31:36.668Z,9.58
2022-12-22T03:32:36.563Z,9.60
2022-12-22T03:33:36.560Z,9.57
2022-12-22T03:34:36.571Z,9.58
2022-12-22T03:35:36.557Z,9.60
2022-12-22T03:36:36.558Z,9.60
2022-12-22T03:37:36.511Z,9.61
2022-12-22T03:38:36.497Z,9.61
2022-12-22T03:39:36.500Z,9.60
2022-12-22T03:40:36.485Z,9.58
2022-12-22T03:41:36.485Z,9.60
2022-12-22T03:42:36.463Z,9.58
2022-12-22T03:43:36.465Z,9.60
2022-12-22T03:44:36.437Z,9.58
2022-12-22T03:45:36.431Z,9.60
2022-12-22T03:46:36.465Z,9.60
2022-12-22T03:47:36.417Z,9.60
2022-12-22T03:48:36.398Z,9.61
2022-12-22T03:49:36.386Z,9.61
2022-12-22T03:50:36.369Z,9.61
2022-12-22T03:51:36.363Z,9.65
2022-12-22T03:52:36.344Z,9.65
2022-12-22T03:53:36.360Z,9.65
2022-12-22T03:54:36.336Z,9.66
2022-12-22T03:55:36.336Z,9.66
2022-12-22T03:56:36.311Z,9.68
2022-12-22T03:57:36.295Z,9.68
2022-12-22T03:58:36.314Z,9.66
2022-12-22T03:59:36.287Z,9.68
2022-12-22T04:00:36.285Z,9.66
2022-12-22T04:01:36.347Z,9.66
2022-12-22T04:02:36.450Z,9.66
2022-12-22T04:03:36.257Z,9.68
2022-12-22T04:04:36.224Z,9.68
2022-12-22T04:05:36.215Z,9.69
2022-12-22T04:06:36.208Z,9.69
2022-12-22T04:07:36.192Z,9.69
2022-12-22T04:08:36.176Z,9.69
2022-12-22T04:09:36.187Z,9.69
2022-12-22T04:10:36.151Z,9.68
2022-12-22T04:11:36.167Z,9.68
2022-12-22T04:12:36.139Z,9.68
2022-12-22T04:13:36.124Z,9.68
2022-12-22T04:14:36.129Z,9.71
2022-12-22T04:15:36.123Z,9.69
2022-12-22T04:16:36.204Z,9.69
2022-12-22T04:17:36.077Z,9.69
2022-12-22T04:18:36.114Z,9.69
2022-12-22T04:19:36.067Z,9.68
2022-12-22T04:20:36.057Z,9.68
2022-12-22T04:21:36.047Z,9.69
2022-12-22T04:22:36.021Z,9.71
2022-12-22T04:23:36.014Z,9.69
2022-12-22T04:24:36.002Z,9.71
2022-12-22T04:25:35.984Z,9.69
2022-12-22T04:26:36.011Z,9.69
2022-12-22T04:27:35.978Z,9.68
2022-12-22T04:28:36.031Z,9.68
2022-12-22T04:29:35.948Z,9.69
2022-12-22T04:30:35.939Z,9.69
2022-12-22T04:31:35.967Z,9.69
2022-12-22T04:32:35.933Z,9.69
2022-12-22T04:33:35.915Z,9.69
2022-12-22T04:34:35.896Z,9.71
2022-12-22T04:35:35.898Z,9.71
2022-12-22T04:36:35.872Z,9.69
2022-12-22T04:37:35.864Z,9.71
2022-12-22T04:38:35.896Z,9.72
2022-12-22T04:39:35.848Z,9.72
2022-12-22T04:40:35.839Z,9.72
2022-12-22T04:41:35.849Z,9.72
2022-12-22T04:42:35.830Z,9.72
2022-12-22T04:43:35.824Z,9.72
2022-12-22T04:44:35.787Z,9.72
2022-12-22T04:45:35.847Z,9.74
2022-12-22T04:46:35.777Z,9.74
2022-12-22T04:47:35.753Z,9.75
2022-12-22T04:48:35.752Z,9.76
2022-12-22T04:49:35.757Z,9.76
2022-12-22T04:50:35.727Z,9.76
2022-12-22T04:51:35.716Z,9.76
2022-12-22T04:52:35.705Z,9.78
2022-12-22T04:53:35.728Z,9.78
2022-12-22T04:54:35.684Z,9.76
2022-12-22T04:55:35.668Z,9.79
2022-12-22T04:56:35.671Z,9.76
2022-12-22T04:57:40.503Z,9.78
2022-12-22T04:58:35.670Z,9.79
2022-12-22T04:59:35.634Z,9.79
2022-12-22T05:00:35.629Z,9.81
2022-12-22T05:01:35.777Z,9.83
2022-12-22T05:02:35.778Z,9.83
2022-12-22T05:03:35.646Z,9.84
2022-12-22T05:04:35.601Z,9.84
2022-12-22T05:05:35.565Z,9.84
2022-12-22T05:06:35.579Z,9.83
2022-12-22T05:07:35.544Z,9.83
2022-12-22T05:08:35.623Z,9.83
2022-12-22T05:09:35.524Z,9.84
2022-12-22T05:10:35.522Z,9.84
2022-12-22T05:11:35.528Z,9.84
2022-12-22T05:12:35.516Z,9.86
2022-12-22T05:13:35.500Z,9.87
2022-12-22T05:14:35.468Z,9.87
2022-12-22T05:15:35.478Z,9.86
2022-12-22T05:16:35.536Z,9.87
2022-12-22T05:17:35.438Z,9.89
2022-12-22T05:18:35.449Z,9.87
2022-12-22T05:19:35.427Z,9.87
2022-12-22T05:20:35.414Z,9.86
2022-12-22T05:21:35.422Z,9.86
2022-12-22T05:22:35.389Z,9.89
2022-12-22T05:23:35.379Z,9.89
2022-12-22T05:24:35.370Z,9.89
2022-12-22T05:25:35.837Z,9.91
2022-12-22T05:26:35.334Z,9.91
2022-12-22T05:27:35.342Z,9.91
2022-12-22T05:28:35.314Z,9.91
2022-12-22T05:29:35.321Z,9.93
2022-12-22T05:30:35.419Z,9.90
2022-12-22T05:31:35.322Z,9.91
2022-12-22T05:32:35.300Z,9.94
2022-12-22T05:33:35.270Z,9.94
2022-12-22T05:34:35.285Z,9.96
2022-12-22T05:35:35.265Z,9.96
2022-12-22T05:36:35.247Z,9.97
2022-12-22T05:37:35.222Z,9.93
2022-12-22T05:38:35.213Z,9.89
2022-12-22T05:39:35.214Z,9.86
2022-12-22T05:40:35.217Z,9.83
2022-12-22T05:41:35.211Z,9.81
2022-12-22T05:42:35.196Z,9.79
2022-12-22T05:43:35.182Z,9.79
2022-12-22T05:44:35.153Z,9.81
2022-12-22T05:45:35.155Z,9.83
2022-12-22T05:46:35.240Z,9.84
2022-12-22T05:47:35.122Z,9.87
2022-12-22T05:48:38.431Z,9.89
2022-12-22T05:49:35.097Z,9.91
2022-12-22T05:50:35.108Z,9.91
2022-12-22T05:51:35.095Z,9.91
2022-12-22T05:52:35.078Z,9.93
2022-12-22T05:53:35.061Z,9.93
2022-12-22T05:54:35.040Z,9.93
2022-12-22T05:55:35.028Z,9.94
2022-12-22T05:56:35.035Z,9.97
2022-12-22T05:57:35.011Z,9.94
2022-12-22T05:58:35.017Z,9.96
2022-12-22T05:59:34.988Z,9.96
2022-12-22T06:00:34.985Z,9.96
2022-12-22T06:01:35.011Z,9.96
2022-12-22T06:02:35.213Z,9.96
2022-12-22T06:03:35.174Z,9.93
2022-12-22T06:04:34.932Z,9.90
2022-12-22T06:05:34.939Z,9.86
2022-12-22T06:06:34.930Z,9.86
2022-12-22T06:07:34.916Z,9.83
2022-12-22T06:08:34.896Z,9.87
2022-12-22T06:09:35.767Z,9.86
2022-12-22T06:10:34.898Z,9.87
2022-12-22T06:11:34.854Z,9.87
2022-12-22T06:12:34.851Z,9.86
2022-12-22T06:13:34.853Z,9.86
2022-12-22T06:14:34.827Z,9.86
2022-12-22T06:15:35.022Z,9.84
2022-12-22T06:16:34.940Z,9.84
2022-12-22T06:17:39.053Z,9.86
2022-12-22T06:18:34.782Z,9.86
2022-12-22T06:19:34.787Z,9.89
2022-12-22T06:20:34.776Z,9.89
2022-12-22T06:21:34.751Z,9.90
2022-12-22T06:22:34.747Z,9.91
2022-12-22T06:23:34.744Z,9.91
2022-12-22T06:24:34.714Z,9.91
2022-12-22T06:25:34.734Z,9.91
2022-12-22T06:26:34.723Z,9.91
2022-12-22T06:27:34.691Z,9.90
2022-12-22T06:28:34.671Z,9.91
2022-12-22T06:29:34.683Z,9.90
2022-12-22T06:30:34.664Z,9.91
2022-12-22T06:31:34.720Z,9.93
2022-12-22T06:32:34.622Z,9.94
2022-12-22T06:33:34.638Z,9.96
2022-12-22T06:34:34.604Z,9.96
2022-12-22T06:35:34.610Z,9.97
2022-12-22T06:36:34.599Z,9.96
2022-12-22T06:37:35.630Z,9.99
2022-12-22T06:38:34.578Z,9.97
2022-12-22T06:39:34.554Z,9.99
2022-12-22T06:40:34.561Z,9.99
2022-12-22T06:41:34.542Z,10.01
2022-12-22T06:42:34.519Z,9.99
2022-12-22T06:43:34.514Z,9.99
2022-12-22T06:44:34.507Z,10.01
2022-12-22T06:45:34.494Z,9.99
2022-12-22T06:46:34.608Z,10.01
2022-12-22T06:47:34.471Z,10.01
2022-12-22T06:48:34.464Z,10.01
2022-12-22T06:49:34.448Z,9.99
2022-12-22T06:50:34.458Z,10.01
2022-12-22T06:51:34.459Z,10.01
2022-12-22T06:52:34.591Z,9.99
2022-12-22T06:53:34.489Z,10.01
2022-12-22T06:54:34.398Z,10.01
2022-12-22T06:55:34.406Z,10.01
2022-12-22T06:56:34.372Z,10.02
2022-12-22T06:57:34.366Z,9.97
2022-12-22T06:58:34.485Z,9.97
2022-12-22T06:59:34.344Z,9.97
2022-12-22T07:00:34.366Z,9.96
2022-12-22T07:01:34.555Z,9.99
2022-12-22T07:02:34.652Z,9.99
2022-12-22T07:03:35.416Z,9.99
2022-12-22T07:04:34.301Z,9.99
2022-12-22T07:05:34.269Z,9.99
2022-12-22T07:06:34.286Z,10.01
2022-12-22T07:07:34.383Z,9.99
2022-12-22T07:08:34.369Z,10.02
2022-12-22T07:09:34.226Z,10.02
2022-12-22T07:10:34.223Z,10.02
2022-12-22T07:11:34.218Z,10.02
2022-12-22T07:12:34.208Z,10.01
2022-12-22T07:13:34.334Z,10.02
2022-12-22T07:14:34.478Z,10.01
2022-12-22T07:15:34.228Z,10.04
2022-12-22T07:16:34.294Z,10.05
2022-12-22T07:17:34.168Z,10.04
2022-12-22T07:18:34.227Z,10.02
2022-12-22T07:19:34.152Z,10.02
2022-12-22T07:20:34.110Z,10.02
2022-12-22T07:21:34.110Z,10.04
2022-12-22T07:22:34.102Z,10.04
2022-12-22T07:23:34.098Z,10.04
2022-12-22T07:24:34.096Z,10.02
2022-12-22T07:25:34.069Z,10.02
2022-12-22T07:26:34.052Z,10.02
2022-12-22T07:27:34.051Z,10.04
2022-12-22T07:28:34.053Z,10.04
2022-12-22T07:29:34.039Z,10.04
2022-12-22T07:30:34.008Z,10.05
2022-12-22T07:31:34.150Z,10.05
2022-12-22T07:32:34.002Z,10.05
2022-12-22T07:33:33.971Z,10.05
2022-12-22T07:34:33.978Z,10.05
2022-12-22T07:35:33.953Z,10.05
2022-12-22T07:36:33.944Z,10.04
2022-12-22T07:37:33.943Z,10.04
2022-12-22T07:38:33.929Z,10.05
2022-12-22T07:39:33.927Z,10.05
2022-12-22T07:40:39.454Z,10.04
2022-12-22T07:41:33.921Z,10.07
2022-12-22T07:42:33.871Z,10.07
2022-12-22T07:43:33.879Z,10.07
2022-12-22T07:44:33.881Z,10.07
2022-12-22T07:45:33.846Z,10.07
2022-12-22T07:46:33.960Z,10.07
2022-12-22T07:47:35.629Z,10.08
2022-12-22T07:48:33.830Z,10.07
2022-12-22T07:49:33.814Z,10.09
2022-12-22T07:50:33.800Z,10.11
2022-12-22T07:51:33.801Z,10.11
2022-12-22T07:52:33.759Z,10.09
2022-12-22T07:53:33.759Z,10.09
2022-12-22T07:54:39.656Z,10.11
2022-12-22T07:55:33.737Z,10.11
2022-12-22T07:56:33.717Z,10.12
2022-12-22T07:57:33.725Z,10.12
2022-12-22T07:58:33.710Z,10.12
2022-12-22T07:59:33.689Z,10.14
2022-12-22T08:00:33.683Z,10.14
2022-12-22T08:01:33.787Z,10.15
2022-12-22T08:02:38.842Z,10.14
2022-12-22T08:03:33.659Z,10.15
2022-12-22T08:04:33.728Z,10.14
2022-12-22T08:05:33.626Z,10.15
2022-12-22T08:06:33.636Z,10.15
2022-12-22T08:07:33.637Z,10.14
2022-12-22T08:08:33.600Z,10.15
2022-12-22T08:09:33.584Z,10.14
2022-12-22T08:10:33.612Z,10.15
2022-12-22T08:11:33.564Z,10.14
2022-12-22T08:12:33.632Z,10.12
2022-12-22T08:13:33.559Z,10.14
2022-12-22T08:14:33.547Z,10.11
2022-12-22T08:15:33.525Z,10.12
2022-12-22T08:16:33.582Z,10.11
2022-12-22T08:17:33.492Z,10.12
2022-12-22T08:18:33.489Z,10.12
2022-12-22T08:19:33.486Z,10.14
2022-12-22T08:20:33.460Z,10.14
2022-12-22T08:21:33.464Z,10.12
2022-12-22T08:22:33.450Z,10.12
2022-12-22T08:23:33.432Z,10.11
2022-12-22T08:24:33.420Z,10.11
2022-12-22T08:25:33.412Z,10.09
2022-12-22T08:26:33.393Z,10.11
2022-12-22T08:27:33.407Z,10.09
2022-12-22T08:28:33.375Z,10.09
2022-12-22T08:29:33.366Z,10.08
2022-12-22T08:30:33.350Z,10.05
2022-12-22T08:31:33.441Z,10.05
2022-12-22T08:32:33.381Z,10.07
2022-12-22T08:33:33.345Z,10.05
2022-12-22T08:34:33.340Z,10.05
2022-12-22T08:35:33.362Z,10.05
2022-12-22T08:36:33.294Z,10.04
2022-12-22T08:37:33.285Z,10.02
2022-12-22T08:38:33.270Z,10.04
2022-12-22T08:39:33.285Z,10.02
2022-12-22T08:40:33.251Z,10.01
2022-12-22T08:41:33.256Z,9.99
2022-12-22T08:42:33.247Z,9.99
2022-12-22T08:43:33.224Z,9.94
2022-12-22T08:44:33.214Z,9.94
2022-12-22T08:45:33.194Z,9.93
2022-12-22T08:46:33.212Z,9.93
2022-12-22T08:47:33.310Z,9.94
2022-12-22T08:48:33.164Z,9.96
2022-12-22T08:49:33.171Z,9.87
2022-12-22T08:50:33.138Z,9.87
2022-12-22T08:51:33.130Z,9.89
2022-12-22T08:52:33.606Z,9.89
2022-12-22T08:54:33.134Z,9.89
2022-12-22T08:55:33.094Z,9.87
2022-12-22T08:56:33.101Z,9.87
2022-12-22T08:57:33.063Z,9.81
2022-12-22T08:58:33.084Z,9.78
2022-12-22T08:59:33.040Z,9.76
2022-12-22T09:00:33.063Z,9.79
2022-12-22T09:01:33.301Z,9.79
2022-12-22T09:02:33.153Z,9.78
2022-12-22T09:03:33.078Z,9.72
2022-12-22T09:04:32.996Z,9.74
2022-12-22T09:05:32.989Z,9.74
2022-12-22T09:06:40.164Z,9.74
2022-12-22T09:07:32.959Z,9.75
2022-12-22T09:08:32.935Z,9.72
2022-12-22T09:09:32.954Z,9.69
2022-12-22T09:10:32.926Z,9.69
2022-12-22T09:11:33.670Z,9.66
2022-12-22T09:12:32.932Z,9.68
2022-12-22T09:13:32.890Z,9.71
2022-12-22T09:14:32.921Z,9.71
2022-12-22T09:15:32.894Z,9.68
2022-12-22T09:16:32.922Z,9.69
2022-12-22T09:17:32.882Z,9.71
2022-12-22T09:18:32.849Z,9.74
2022-12-22T09:19:32.842Z,9.72
2022-12-22T09:20:32.832Z,9.74
2022-12-22T09:21:32.832Z,9.75
2022-12-22T09:22:32.792Z,9.72
2022-12-22T09:23:32.806Z,9.74
2022-12-22T09:24:32.773Z,9.76
2022-12-22T09:25:32.774Z,9.78
2022-12-22T09:26:32.755Z,9.79
2022-12-22T09:27:32.727Z,9.83
2022-12-22T09:28:32.732Z,9.83
2022-12-22T09:29:32.744Z,9.83
2022-12-22T09:30:32.722Z,9.83
2022-12-22T09:31:32.743Z,9.86
2022-12-22T09:32:32.685Z,9.83
2022-12-22T09:33:32.782Z,9.79
2022-12-22T09:34:32.657Z,9.78
2022-12-22T09:35:32.653Z,9.78
2022-12-22T09:36:32.656Z,9.76
2022-12-22T09:37:32.628Z,9.75
2022-12-22T09:38:32.619Z,9.76
2022-12-22T09:39:32.617Z,9.76
2022-12-22T09:40:32.593Z,9.74
2022-12-22T09:41:32.631Z,9.74
2022-12-22T09:42:32.598Z,9.76
2022-12-22T09:43:32.563Z,9.76
2022-12-22T09:44:32.569Z,9.76
2022-12-22T09:45:32.578Z,9.76
2022-12-22T09:46:32.585Z,9.79
2022-12-22T09:47:32.548Z,9.81
2022-12-22T09:48:32.522Z,9.83
2022-12-22T09:49:32.526Z,9.84
2022-12-22T09:50:32.495Z,9.87
2022-12-22T09:51:32.491Z,9.89
2022-12-22T09:52:32.479Z,9.90
2022-12-22T09:53:32.477Z,9.91
2022-12-22T09:54:32.458Z,9.93
2022-12-22T09:55:32.443Z,9.94
2022-12-22T09:56:32.420Z,9.93
2022-12-22T09:57:32.445Z,9.94
2022-12-22T09:58:32.395Z,9.97
2022-12-22T09:59:32.377Z,9.99
2022-12-22T10:00:32.403Z,9.99
2022-12-22T10:01:32.520Z,10.02
2022-12-22T10:02:32.440Z,10.04
2022-12-22T10:03:32.482Z,10.07
2022-12-22T10:04:32.350Z,10.07
2022-12-22T10:05:32.324Z,10.09
2022-12-22T10:06:32.318Z,10.11
2022-12-22T10:07:32.311Z,10.11
2022-12-22T10:08:32.295Z,10.12
2022-12-22T10:10:32.280Z,10.20
2022-12-22T10:11:32.259Z,10.22
2022-12-22T10:12:32.240Z,10.23
2022-12-22T10:13:32.244Z,10.25
2022-12-22T10:14:32.232Z,10.23
2022-12-22T10:15:32.216Z,10.20
2022-12-22T10:16:32.240Z,10.22
2022-12-22T10:17:32.376Z,10.18
2022-12-22T10:18:32.208Z,10.15
2022-12-22T10:19:32.173Z,10.11
2022-12-22T10:20:32.173Z,10.08
2022-12-22T10:21:32.157Z,10.08
2022-12-22T10:22:32.188Z,10.07
2022-12-22T10:23:32.125Z,10.01
2022-12-22T10:24:32.133Z,9.96
2022-12-22T10:25:45.304Z,9.91
2022-12-22T10:26:32.257Z,9.89
2022-12-22T10:27:32.084Z,9.87
2022-12-22T10:28:32.063Z,9.84
2022-12-22T10:29:32.069Z,9.81
2022-12-22T10:30:32.032Z,9.79
2022-12-22T10:31:32.106Z,9.79
2022-12-22T10:32:32.017Z,9.75
2022-12-22T10:33:32.006Z,9.74
2022-12-22T10:34:32.003Z,9.76
2022-12-22T10:35:31.995Z,9.75
2022-12-22T10:36:32.106Z,9.71
2022-12-22T10:37:31.969Z,9.66
2022-12-22T10:38:31.948Z,9.64
2022-12-22T10:39:31.962Z,9.60
2022-12-22T10:40:31.936Z,9.60
2022-12-22T10:41:31.956Z,9.60
2022-12-22T10:42:31.914Z,9.57
2022-12-22T10:43:31.923Z,9.53
2022-12-22T10:44:31.900Z,9.54
2022-12-22T10:45:31.947Z,9.56
2022-12-22T10:46:32.056Z,9.53
2022-12-22T10:47:31.893Z,9.54
2022-12-22T10:48:31.862Z,9.54
2022-12-22T10:49:31.831Z,9.54
2022-12-22T10:50:31.816Z,9.54
2022-12-22T10:51:31.818Z,9.53
2022-12-22T10:52:32.326Z,9.53
2022-12-22T10:53:31.772Z,9.54
2022-12-22T10:54:31.807Z,9.54
2022-12-22T10:55:31.754Z,9.54
2022-12-22T10:56:31.760Z,9.53
2022-12-22T10:57:31.746Z,9.56
2022-12-22T10:58:31.726Z,9.56
2022-12-22T10:59:31.702Z,9.57
2022-12-22T11:00:31.699Z,9.58
2022-12-22T11:01:31.777Z,9.58
2022-12-22T11:02:31.893Z,9.57
2022-12-22T11:03:31.881Z,9.57
2022-12-22T11:04:31.664Z,9.58
2022-12-22T11:05:31.664Z,9.61
2022-12-22T11:06:31.633Z,9.64
2022-12-22T11:07:31.620Z,9.66
2022-12-22T11:08:31.607Z,9.68
2022-12-22T11:09:34.551Z,9.68
2022-12-22T11:10:31.608Z,9.68
2022-12-22T11:11:31.572Z,9.71
2022-12-22T11:12:31.621Z,9.72
2022-12-22T11:13:31.558Z,9.74
2022-12-22T11:14:31.537Z,9.75
2022-12-22T11:15:31.531Z,9.78
2022-12-22T11:16:31.575Z,9.79
2022-12-22T11:17:31.516Z,9.83
2022-12-22T11:18:31.485Z,9.83
2022-12-22T11:19:31.479Z,9.83
2022-12-22T11:20:31.532Z,9.86
2022-12-22T11:21:31.462Z,9.84
2022-12-22T11:22:31.449Z,9.83
2022-12-22T11:23:31.424Z,9.81
2022-12-22T11:24:31.412Z,9.81
2022-12-22T11:25:31.468Z,9.76
2022-12-22T11:26:31.410Z,9.74
2022-12-22T11:27:31.387Z,9.75
2022-12-22T11:28:31.369Z,9.74
2022-12-22T11:29:31.350Z,9.75
2022-12-22T11:30:31.400Z,9.72
2022-12-22T11:31:31.439Z,9.72
2022-12-22T11:32:31.317Z,9.72
2022-12-22T11:33:31.312Z,9.74
2022-12-22T11:34:31.306Z,9.72
2022-12-22T11:35:31.290Z,9.71
2022-12-22T11:36:31.277Z,9.69
2022-12-22T11:37:31.280Z,9.71
2022-12-22T11:38:31.243Z,9.71
2022-12-22T11:39:31.261Z,9.74
2022-12-22T11:40:31.222Z,9.81
2022-12-22T11:41:31.223Z,9.86
2022-12-22T11:42:31.217Z,9.86
2022-12-22T11:43:31.206Z,9.89
2022-12-22T11:44:31.191Z,9.90
2022-12-22T11:45:31.176Z,9.93
2022-12-22T11:46:31.297Z,9.93
2022-12-22T11:47:31.141Z,9.93
2022-12-22T11:48:31.135Z,9.96
2022-12-22T11:49:31.121Z,9.99
2022-12-22T11:51:02.724Z,10.01
2022-12-22T11:51:31.104Z,10.01
2022-12-22T11:52:31.090Z,9.99
2022-12-22T11:53:31.077Z,10.01
2022-12-22T11:54:31.064Z,10.08
2022-12-22T11:55:31.073Z,10.14
2022-12-22T11:56:31.054Z,10.22
2022-12-22T11:57:31.031Z,10.27
2022-12-22T11:58:31.026Z,10.27
2022-12-22T11:59:31.013Z,10.29
2022-12-22T12:00:56.089Z,10.29
2022-12-22T12:01:31.270Z,10.32
2022-12-22T12:02:31.102Z,10.33
2022-12-22T12:03:31.200Z,10.33
2022-12-22T12:04:31.009Z,10.32
2022-12-22T12:05:30.954Z,10.33
2022-12-22T12:06:30.986Z,10.32
2022-12-22T12:07:30.922Z,10.38
2022-12-22T12:08:30.911Z,10.42
2022-12-22T12:09:30.890Z,10.48
2022-12-22T12:10:30.876Z,10.52
2022-12-22T12:11:30.868Z,10.55
2022-12-22T12:12:30.877Z,10.53
2022-12-22T12:13:36.734Z,10.51
2022-12-22T12:14:30.841Z,10.47
2022-12-22T12:15:30.824Z,10.42
2022-12-22T12:16:30.921Z,10.38
2022-12-22T12:17:30.811Z,10.36
2022-12-22T12:18:30.793Z,10.32
2022-12-22T12:19:30.778Z,10.32
2022-12-22T12:20:30.756Z,10.32
2022-12-22T12:21:30.758Z,10.29
2022-12-22T12:22:30.733Z,10.23
2022-12-22T12:23:30.730Z,10.20
2022-12-22T12:24:30.725Z,10.22
2022-12-22T12:25:30.710Z,10.23
2022-12-22T12:26:30.694Z,10.22
2022-12-22T12:27:30.682Z,10.23
2022-12-22T12:28:30.670Z,10.27
2022-12-22T12:29:30.658Z,10.29
2022-12-22T12:30:39.074Z,10.30
2022-12-22T12:31:30.655Z,10.32
2022-12-22T12:32:30.615Z,10.32
2022-12-22T12:33:30.641Z,10.32
2022-12-22T12:34:30.608Z,10.30
2022-12-22T12:35:30.580Z,10.32
2022-12-22T12:36:30.589Z,10.32
2022-12-22T12:37:30.572Z,10.27
2022-12-22T12:39:30.540Z,10.26
2022-12-22T12:40:30.538Z,10.29
2022-12-22T12:41:30.791Z,10.29
2022-12-22T12:42:30.520Z,10.42
2022-12-22T12:43:30.508Z,10.76
2022-12-22T12:44:30.495Z,10.81
2022-12-22T12:45:30.463Z,10.82
2022-12-22T12:46:30.483Z,10.79
2022-12-22T12:47:30.524Z,10.76
2022-12-22T12:48:30.435Z,10.71
2022-12-22T12:49:30.426Z,10.67
2022-12-22T12:50:30.432Z,10.64
2022-12-22T12:51:30.417Z,10.64
2022-12-22T12:52:30.381Z,10.63
2022-12-22T12:53:30.434Z,10.59
2022-12-22T12:54:30.362Z,10.59
2022-12-22T12:55:32.773Z,10.61
2022-12-22T12:56:30.345Z,10.60
2022-12-22T12:57:30.333Z,10.59
2022-12-22T12:58:30.322Z,10.55
2022-12-22T12:59:30.305Z,10.55
2022-12-22T13:00:30.332Z,10.45
2022-12-22T13:01:30.470Z,10.41
2022-12-22T13:02:30.426Z,10.36
2022-12-22T13:04:01.730Z,10.33
2022-12-22T13:04:30.374Z,10.30
2022-12-22T13:05:30.235Z,10.29
2022-12-22T13:06:30.230Z,10.25
2022-12-22T13:07:30.242Z,10.26
2022-12-22T13:08:30.256Z,10.29
2022-12-22T13:09:49.801Z,10.29
2022-12-22T13:10:30.196Z,10.29
2022-12-22T13:12:01.734Z,10.25
2022-12-22T13:12:30.192Z,10.25
2022-12-22T13:13:30.147Z,10.25
2022-12-22T13:14:30.173Z,10.25